sensor_id;sensor_type;location;lat;lon;timestamp;P1;durP1;ratioP1;P2;durP2;ratioP2
75941;SDS011;64622;46.220;19.878;2023-05-13T00:00:15;19.87;;;10.82;;
75941;SDS011;64622;46.220;19.878;2023-05-13T00:02:43;17.20;;;9.00;;
75941;SDS011;64622;46.220;19.878;2023-05-13T00:05:10;17.55;;;11.02;;
75941;SDS011;64622;46.220;19.878;2023-05-13T00:07:36;17.75;;;11.40;;
75941;SDS011;64622;46.220;19.878;2023-05-13T00:10:03;21.10;;;12.53;;
75941;SDS011;64622;46.220;19.878;2023-05-13T00:12:30;19.58;;;11.63;;
75941;SDS011;64622;46.220;19.878;2023-05-13T00:14:56;24.85;;;14.30;;
75941;SDS011;64622;46.220;19.878;2023-05-13T00:17:23;20.48;;;11.77;;
75941;SDS011;64622;46.220;19.878;2023-05-13T00:19:50;21.12;;;12.90;;
75941;SDS011;64622;46.220;19.878;2023-05-13T00:22:16;23.80;;;10.77;;
75941;SDS011;64622;46.220;19.878;2023-05-13T00:24:43;18.42;;;10.38;;
75941;SDS011;64622;46.220;19.878;2023-05-13T00:27:09;18.33;;;10.85;;
75941;SDS011;64622;46.220;19.878;2023-05-13T00:29:36;20.20;;;10.02;;
75941;SDS011;64622;46.220;19.878;2023-05-13T00:32:03;15.80;;;9.02;;
75941;SDS011;64622;46.220;19.878;2023-05-13T00:34:29;18.40;;;9.80;;
75941;SDS011;64622;46.220;19.878;2023-05-13T00:36:56;15.40;;;8.77;;
75941;SDS011;64622;46.220;19.878;2023-05-13T00:39:23;15.65;;;8.60;;
75941;SDS011;64622;46.220;19.878;2023-05-13T00:41:49;18.20;;;9.15;;
75941;SDS011;64622;46.220;19.878;2023-05-13T00:44:16;17.62;;;8.77;;
75941;SDS011;64622;46.220;19.878;2023-05-13T00:46:43;18.33;;;7.93;;
75941;SDS011;64622;46.220;19.878;2023-05-13T00:49:09;14.40;;;8.18;;
75941;SDS011;64622;46.220;19.878;2023-05-13T00:51:36;17.20;;;9.25;;
75941;SDS011;64622;46.220;19.878;2023-05-13T00:54:04;14.95;;;8.20;;
75941;SDS011;64622;46.220;19.878;2023-05-13T00:56:31;13.55;;;6.55;;
75941;SDS011;64622;46.220;19.878;2023-05-13T00:58:58;15.70;;;7.33;;
75941;SDS011;64622;46.220;19.878;2023-05-13T01:10:02;15.00;;;7.15;;
75941;SDS011;64622;46.220;19.878;2023-05-13T01:12:32;13.87;;;7.47;;
75941;SDS011;64622;46.220;19.878;2023-05-13T01:15:04;13.35;;;7.65;;
75941;SDS011;64622;46.220;19.878;2023-05-13T01:17:31;17.48;;;8.07;;
75941;SDS011;64622;46.220;19.878;2023-05-13T01:20:08;16.92;;;7.93;;
75941;SDS011;64622;46.220;19.878;2023-05-13T01:22:35;16.48;;;7.75;;
75941;SDS011;64622;46.220;19.878;2023-05-13T01:25:02;15.03;;;7.07;;
75941;SDS011;64622;46.220;19.878;2023-05-13T01:27:29;13.65;;;7.00;;
75941;SDS011;64622;46.220;19.878;2023-05-13T01:29:55;11.68;;;5.75;;
75941;SDS011;64622;46.220;19.878;2023-05-13T01:32:22;12.13;;;6.50;;
75941;SDS011;64622;46.220;19.878;2023-05-13T01:34:50;12.55;;;6.07;;
75941;SDS011;64622;46.220;19.878;2023-05-13T01:37:18;12.17;;;6.77;;
75941;SDS011;64622;46.220;19.878;2023-05-13T01:39:46;14.25;;;5.95;;
75941;SDS011;64622;46.220;19.878;2023-05-13T01:42:14;13.48;;;5.90;;
75941;SDS011;64622;46.220;19.878;2023-05-13T01:44:41;11.75;;;5.40;;
75941;SDS011;64622;46.220;19.878;2023-05-13T01:47:08;14.20;;;7.22;;
75941;SDS011;64622;46.220;19.878;2023-05-13T01:49:35;9.40;;;4.60;;
75941;SDS011;64622;46.220;19.878;2023-05-13T01:52:01;11.27;;;6.32;;
75941;SDS011;64622;46.220;19.878;2023-05-13T01:54:29;11.50;;;5.20;;
75941;SDS011;64622;46.220;19.878;2023-05-13T01:56:57;10.73;;;6.10;;
75941;SDS011;64622;46.220;19.878;2023-05-13T01:59:24;12.95;;;6.32;;
75941;SDS011;64622;46.220;19.878;2023-05-13T02:01:51;10.77;;;5.23;;
75941;SDS011;64622;46.220;19.878;2023-05-13T02:04:17;10.52;;;5.03;;
75941;SDS011;64622;46.220;19.878;2023-05-13T02:06:44;10.55;;;5.75;;
75941;SDS011;64622;46.220;19.878;2023-05-13T02:09:10;12.15;;;5.85;;
75941;SDS011;64622;46.220;19.878;2023-05-13T02:11:37;11.60;;;6.15;;
75941;SDS011;64622;46.220;19.878;2023-05-13T02:14:04;11.17;;;5.33;;
75941;SDS011;64622;46.220;19.878;2023-05-13T02:16:31;10.98;;;5.75;;
75941;SDS011;64622;46.220;19.878;2023-05-13T02:18:58;11.38;;;5.00;;
75941;SDS011;64622;46.220;19.878;2023-05-13T02:21:26;10.48;;;4.72;;
75941;SDS011;64622;46.220;19.878;2023-05-13T02:23:52;9.98;;;5.00;;
75941;SDS011;64622;46.220;19.878;2023-05-13T02:26:19;11.97;;;4.73;;
75941;SDS011;64622;46.220;19.878;2023-05-13T02:28:47;11.00;;;5.60;;
75941;SDS011;64622;46.220;19.878;2023-05-13T02:31:13;13.30;;;6.30;;
75941;SDS011;64622;46.220;19.878;2023-05-13T02:33:41;8.93;;;4.57;;
75941;SDS011;64622;46.220;19.878;2023-05-13T02:36:07;9.90;;;5.40;;
75941;SDS011;64622;46.220;19.878;2023-05-13T02:38:35;10.50;;;5.80;;
75941;SDS011;64622;46.220;19.878;2023-05-13T02:41:01;10.60;;;5.03;;
75941;SDS011;64622;46.220;19.878;2023-05-13T02:43:28;11.80;;;4.82;;
75941;SDS011;64622;46.220;19.878;2023-05-13T02:45:55;12.02;;;5.20;;
75941;SDS011;64622;46.220;19.878;2023-05-13T02:48:22;8.90;;;4.72;;
75941;SDS011;64622;46.220;19.878;2023-05-13T02:50:49;10.07;;;5.03;;
75941;SDS011;64622;46.220;19.878;2023-05-13T02:53:16;9.70;;;4.93;;
75941;SDS011;64622;46.220;19.878;2023-05-13T02:55:43;13.05;;;5.53;;
75941;SDS011;64622;46.220;19.878;2023-05-13T02:58:09;12.10;;;5.40;;
75941;SDS011;64622;46.220;19.878;2023-05-13T03:00:36;13.20;;;5.50;;
75941;SDS011;64622;46.220;19.878;2023-05-13T03:03:03;12.47;;;5.70;;
75941;SDS011;64622;46.220;19.878;2023-05-13T03:05:30;10.60;;;5.10;;
75941;SDS011;64622;46.220;19.878;2023-05-13T03:07:56;11.02;;;5.60;;
75941;SDS011;64622;46.220;19.878;2023-05-13T03:10:23;9.40;;;4.72;;
75941;SDS011;64622;46.220;19.878;2023-05-13T03:12:50;11.30;;;5.07;;
75941;SDS011;64622;46.220;19.878;2023-05-13T03:15:16;11.63;;;5.73;;
75941;SDS011;64622;46.220;19.878;2023-05-13T03:17:43;10.68;;;4.07;;
75941;SDS011;64622;46.220;19.878;2023-05-13T03:20:10;11.07;;;4.90;;
75941;SDS011;64622;46.220;19.878;2023-05-13T03:22:37;11.80;;;5.62;;
75941;SDS011;64622;46.220;19.878;2023-05-13T03:25:05;13.30;;;4.50;;
75941;SDS011;64622;46.220;19.878;2023-05-13T03:27:33;10.57;;;4.70;;
75941;SDS011;64622;46.220;19.878;2023-05-13T03:30:00;8.57;;;3.90;;
75941;SDS011;64622;46.220;19.878;2023-05-13T03:32:26;8.90;;;4.55;;
75941;SDS011;64622;46.220;19.878;2023-05-13T03:34:56;10.35;;;5.03;;
75941;SDS011;64622;46.220;19.878;2023-05-13T03:37:23;11.02;;;4.37;;
75941;SDS011;64622;46.220;19.878;2023-05-13T03:39:50;9.27;;;4.90;;
75941;SDS011;64622;46.220;19.878;2023-05-13T03:42:17;10.57;;;5.32;;
75941;SDS011;64622;46.220;19.878;2023-05-13T03:44:45;10.40;;;5.35;;
75941;SDS011;64622;46.220;19.878;2023-05-13T03:47:12;11.30;;;5.25;;
75941;SDS011;64622;46.220;19.878;2023-05-13T03:49:39;10.98;;;4.55;;
75941;SDS011;64622;46.220;19.878;2023-05-13T03:52:05;9.60;;;3.87;;
75941;SDS011;64622;46.220;19.878;2023-05-13T03:54:33;12.10;;;4.45;;
75941;SDS011;64622;46.220;19.878;2023-05-13T03:57:00;10.25;;;4.57;;
75941;SDS011;64622;46.220;19.878;2023-05-13T03:59:27;10.90;;;5.30;;
75941;SDS011;64622;46.220;19.878;2023-05-13T04:01:53;13.02;;;5.80;;
75941;SDS011;64622;46.220;19.878;2023-05-13T04:04:20;9.77;;;4.57;;
75941;SDS011;64622;46.220;19.878;2023-05-13T04:06:47;10.25;;;3.60;;
75941;SDS011;64622;46.220;19.878;2023-05-13T04:09:13;10.90;;;4.68;;
75941;SDS011;64622;46.220;19.878;2023-05-13T04:11:41;10.65;;;5.40;;
75941;SDS011;64622;46.220;19.878;2023-05-13T04:14:08;10.63;;;5.43;;
75941;SDS011;64622;46.220;19.878;2023-05-13T04:16:34;10.60;;;5.63;;
75941;SDS011;64622;46.220;19.878;2023-05-13T04:19:02;8.45;;;3.55;;
75941;SDS011;64622;46.220;19.878;2023-05-13T04:21:29;13.68;;;6.20;;
75941;SDS011;64622;46.220;19.878;2023-05-13T04:23:56;10.65;;;4.68;;
75941;SDS011;64622;46.220;19.878;2023-05-13T04:26:23;10.85;;;4.15;;
75941;SDS011;64622;46.220;19.878;2023-05-13T04:28:50;8.23;;;3.40;;
75941;SDS011;64622;46.220;19.878;2023-05-13T04:31:17;10.23;;;3.65;;
75941;SDS011;64622;46.220;19.878;2023-05-13T04:33:44;7.90;;;3.25;;
75941;SDS011;64622;46.220;19.878;2023-05-13T04:36:11;9.30;;;4.47;;
75941;SDS011;64622;46.220;19.878;2023-05-13T04:38:37;10.13;;;4.93;;
75941;SDS011;64622;46.220;19.878;2023-05-13T04:41:05;12.77;;;5.37;;
75941;SDS011;64622;46.220;19.878;2023-05-13T04:43:32;12.48;;;5.55;;
75941;SDS011;64622;46.220;19.878;2023-05-13T04:45:59;12.48;;;5.53;;
75941;SDS011;64622;46.220;19.878;2023-05-13T04:48:26;9.27;;;4.75;;
75941;SDS011;64622;46.220;19.878;2023-05-13T04:50:53;9.85;;;4.80;;
75941;SDS011;64622;46.220;19.878;2023-05-13T04:53:19;11.40;;;4.77;;
75941;SDS011;64622;46.220;19.878;2023-05-13T04:55:47;8.27;;;3.50;;
75941;SDS011;64622;46.220;19.878;2023-05-13T04:58:15;27.40;;;10.90;;
75941;SDS011;64622;46.220;19.878;2023-05-13T05:00:41;10.05;;;4.72;;
75941;SDS011;64622;46.220;19.878;2023-05-13T05:03:08;10.90;;;4.37;;
75941;SDS011;64622;46.220;19.878;2023-05-13T05:05:35;7.20;;;3.00;;
75941;SDS011;64622;46.220;19.878;2023-05-13T05:08:02;8.57;;;4.10;;
75941;SDS011;64622;46.220;19.878;2023-05-13T05:10:29;10.05;;;4.70;;
75941;SDS011;64622;46.220;19.878;2023-05-13T05:12:56;11.23;;;5.30;;
75941;SDS011;64622;46.220;19.878;2023-05-13T05:15:23;11.10;;;3.90;;
75941;SDS011;64622;46.220;19.878;2023-05-13T05:17:51;8.20;;;3.83;;
75941;SDS011;64622;46.220;19.878;2023-05-13T05:20:18;9.38;;;4.03;;
75941;SDS011;64622;46.220;19.878;2023-05-13T05:22:45;7.97;;;3.60;;
75941;SDS011;64622;46.220;19.878;2023-05-13T05:25:13;7.28;;;3.12;;
75941;SDS011;64622;46.220;19.878;2023-05-13T05:27:40;11.00;;;4.40;;
75941;SDS011;64622;46.220;19.878;2023-05-13T05:30:07;8.40;;;4.23;;
75941;SDS011;64622;46.220;19.878;2023-05-13T05:32:35;7.72;;;3.35;;
75941;SDS011;64622;46.220;19.878;2023-05-13T05:35:02;9.55;;;3.65;;
75941;SDS011;64622;46.220;19.878;2023-05-13T05:37:30;9.63;;;4.45;;
75941;SDS011;64622;46.220;19.878;2023-05-13T05:39:57;7.03;;;2.85;;
75941;SDS011;64622;46.220;19.878;2023-05-13T05:42:25;9.57;;;4.13;;
75941;SDS011;64622;46.220;19.878;2023-05-13T05:44:51;9.80;;;3.30;;
75941;SDS011;64622;46.220;19.878;2023-05-13T05:47:18;8.75;;;4.20;;
75941;SDS011;64622;46.220;19.878;2023-05-13T05:49:45;8.23;;;3.85;;
75941;SDS011;64622;46.220;19.878;2023-05-13T05:52:12;10.82;;;5.40;;
75941;SDS011;64622;46.220;19.878;2023-05-13T05:54:39;10.47;;;4.40;;
75941;SDS011;64622;46.220;19.878;2023-05-13T05:57:05;9.80;;;5.30;;
75941;SDS011;64622;46.220;19.878;2023-05-13T05:59:32;9.60;;;5.18;;
75941;SDS011;64622;46.220;19.878;2023-05-13T06:01:59;8.43;;;3.70;;
75941;SDS011;64622;46.220;19.878;2023-05-13T06:04:25;6.93;;;2.70;;
75941;SDS011;64622;46.220;19.878;2023-05-13T06:06:52;9.20;;;4.50;;
75941;SDS011;64622;46.220;19.878;2023-05-13T06:09:18;9.27;;;3.80;;
75941;SDS011;64622;46.220;19.878;2023-05-13T06:11:45;7.50;;;3.45;;
75941;SDS011;64622;46.220;19.878;2023-05-13T06:14:12;8.65;;;2.95;;
75941;SDS011;64622;46.220;19.878;2023-05-13T06:16:38;11.48;;;4.00;;
75941;SDS011;64622;46.220;19.878;2023-05-13T06:19:05;7.90;;;3.50;;
75941;SDS011;64622;46.220;19.878;2023-05-13T06:21:32;9.73;;;3.42;;
75941;SDS011;64622;46.220;19.878;2023-05-13T06:23:59;9.20;;;3.33;;
75941;SDS011;64622;46.220;19.878;2023-05-13T06:26:28;12.13;;;4.22;;
75941;SDS011;64622;46.220;19.878;2023-05-13T06:28:54;8.73;;;3.97;;
75941;SDS011;64622;46.220;19.878;2023-05-13T06:31:21;12.93;;;5.20;;
75941;SDS011;64622;46.220;19.878;2023-05-13T06:33:48;9.07;;;3.97;;
75941;SDS011;64622;46.220;19.878;2023-05-13T06:36:14;10.95;;;4.32;;
75941;SDS011;64622;46.220;19.878;2023-05-13T06:38:41;9.60;;;5.32;;
75941;SDS011;64622;46.220;19.878;2023-05-13T06:41:08;8.43;;;3.45;;
75941;SDS011;64622;46.220;19.878;2023-05-13T06:43:35;8.77;;;3.47;;
75941;SDS011;64622;46.220;19.878;2023-05-13T06:46:03;7.05;;;2.72;;
75941;SDS011;64622;46.220;19.878;2023-05-13T06:48:30;8.10;;;3.50;;
75941;SDS011;64622;46.220;19.878;2023-05-13T06:50:56;9.27;;;4.07;;
75941;SDS011;64622;46.220;19.878;2023-05-13T06:53:23;7.80;;;2.85;;
75941;SDS011;64622;46.220;19.878;2023-05-13T06:55:50;9.30;;;3.50;;
75941;SDS011;64622;46.220;19.878;2023-05-13T06:58:16;9.68;;;4.55;;
75941;SDS011;64622;46.220;19.878;2023-05-13T07:00:43;11.12;;;3.95;;
75941;SDS011;64622;46.220;19.878;2023-05-13T07:03:12;8.00;;;3.87;;
75941;SDS011;64622;46.220;19.878;2023-05-13T07:05:38;9.88;;;3.87;;
75941;SDS011;64622;46.220;19.878;2023-05-13T07:08:05;7.97;;;3.10;;
75941;SDS011;64622;46.220;19.878;2023-05-13T07:10:32;10.27;;;4.45;;
75941;SDS011;64622;46.220;19.878;2023-05-13T07:12:59;8.68;;;4.00;;
75941;SDS011;64622;46.220;19.878;2023-05-13T07:15:29;8.82;;;4.12;;
75941;SDS011;64622;46.220;19.878;2023-05-13T07:17:56;12.45;;;4.85;;
75941;SDS011;64622;46.220;19.878;2023-05-13T07:20:22;13.07;;;5.83;;
75941;SDS011;64622;46.220;19.878;2023-05-13T07:22:48;10.00;;;4.65;;
75941;SDS011;64622;46.220;19.878;2023-05-13T07:25:16;8.27;;;3.87;;
75941;SDS011;64622;46.220;19.878;2023-05-13T07:27:43;6.80;;;3.00;;
75941;SDS011;64622;46.220;19.878;2023-05-13T07:30:10;8.15;;;3.60;;
75941;SDS011;64622;46.220;19.878;2023-05-13T07:32:38;10.77;;;4.77;;
75941;SDS011;64622;46.220;19.878;2023-05-13T07:35:05;7.90;;;3.70;;
75941;SDS011;64622;46.220;19.878;2023-05-13T07:37:33;9.60;;;4.10;;
75941;SDS011;64622;46.220;19.878;2023-05-13T07:40:00;9.05;;;3.33;;
75941;SDS011;64622;46.220;19.878;2023-05-13T07:42:26;14.70;;;4.05;;
75941;SDS011;64622;46.220;19.878;2023-05-13T07:44:54;10.23;;;3.50;;
75941;SDS011;64622;46.220;19.878;2023-05-13T07:47:22;9.10;;;3.42;;
75941;SDS011;64622;46.220;19.878;2023-05-13T07:49:48;10.02;;;4.10;;
75941;SDS011;64622;46.220;19.878;2023-05-13T07:52:15;10.85;;;5.00;;
75941;SDS011;64622;46.220;19.878;2023-05-13T07:54:42;9.93;;;5.62;;
75941;SDS011;64622;46.220;19.878;2023-05-13T07:57:08;10.40;;;4.40;;
75941;SDS011;64622;46.220;19.878;2023-05-13T07:59:35;11.32;;;4.68;;
75941;SDS011;64622;46.220;19.878;2023-05-13T08:02:02;8.48;;;4.03;;
75941;SDS011;64622;46.220;19.878;2023-05-13T08:04:29;8.52;;;4.60;;
75941;SDS011;64622;46.220;19.878;2023-05-13T08:06:55;7.80;;;3.28;;
75941;SDS011;64622;46.220;19.878;2023-05-13T08:09:22;8.43;;;3.30;;
75941;SDS011;64622;46.220;19.878;2023-05-13T08:11:50;9.10;;;3.10;;
75941;SDS011;64622;46.220;19.878;2023-05-13T08:14:16;8.13;;;3.42;;
75941;SDS011;64622;46.220;19.878;2023-05-13T08:16:43;9.07;;;4.03;;
75941;SDS011;64622;46.220;19.878;2023-05-13T08:19:10;9.30;;;5.20;;
75941;SDS011;64622;46.220;19.878;2023-05-13T08:21:36;10.30;;;4.53;;
75941;SDS011;64622;46.220;19.878;2023-05-13T08:24:03;9.80;;;4.22;;
75941;SDS011;64622;46.220;19.878;2023-05-13T08:26:30;10.75;;;4.65;;
75941;SDS011;64622;46.220;19.878;2023-05-13T08:28:56;8.88;;;4.57;;
75941;SDS011;64622;46.220;19.878;2023-05-13T08:31:23;9.10;;;3.90;;
75941;SDS011;64622;46.220;19.878;2023-05-13T08:33:50;10.83;;;5.93;;
75941;SDS011;64622;46.220;19.878;2023-05-13T08:36:20;11.00;;;5.87;;
75941;SDS011;64622;46.220;19.878;2023-05-13T08:38:51;10.30;;;4.87;;
75941;SDS011;64622;46.220;19.878;2023-05-13T08:41:18;8.88;;;5.35;;
75941;SDS011;64622;46.220;19.878;2023-05-13T08:43:45;11.68;;;4.68;;
75941;SDS011;64622;46.220;19.878;2023-05-13T08:46:13;12.97;;;5.27;;
75941;SDS011;64622;46.220;19.878;2023-05-13T08:48:42;13.30;;;6.82;;
75941;SDS011;64622;46.220;19.878;2023-05-13T08:51:10;11.40;;;4.25;;
75941;SDS011;64622;46.220;19.878;2023-05-13T08:53:38;9.50;;;4.35;;
75941;SDS011;64622;46.220;19.878;2023-05-13T08:56:06;10.05;;;5.32;;
75941;SDS011;64622;46.220;19.878;2023-05-13T08:58:34;10.97;;;4.73;;
75941;SDS011;64622;46.220;19.878;2023-05-13T09:01:01;60.15;;;23.90;;
75941;SDS011;64622;46.220;19.878;2023-05-13T09:03:29;13.10;;;5.35;;
75941;SDS011;64622;46.220;19.878;2023-05-13T09:05:59;13.35;;;7.12;;
75941;SDS011;64622;46.220;19.878;2023-05-13T09:08:26;17.27;;;9.23;;
75941;SDS011;64622;46.220;19.878;2023-05-13T09:10:53;10.80;;;5.13;;
75941;SDS011;64622;46.220;19.878;2023-05-13T09:13:20;9.00;;;4.22;;
75941;SDS011;64622;46.220;19.878;2023-05-13T09:15:47;12.68;;;3.97;;
75941;SDS011;64622;46.220;19.878;2023-05-13T09:18:16;10.27;;;5.10;;
75941;SDS011;64622;46.220;19.878;2023-05-13T09:20:42;8.45;;;3.92;;
75941;SDS011;64622;46.220;19.878;2023-05-13T09:23:09;10.23;;;4.90;;
75941;SDS011;64622;46.220;19.878;2023-05-13T09:25:36;10.43;;;5.82;;
75941;SDS011;64622;46.220;19.878;2023-05-13T09:28:05;10.82;;;6.47;;
75941;SDS011;64622;46.220;19.878;2023-05-13T09:30:34;11.85;;;7.00;;
75941;SDS011;64622;46.220;19.878;2023-05-13T09:33:10;12.68;;;6.57;;
75941;SDS011;64622;46.220;19.878;2023-05-13T09:35:47;10.20;;;5.47;;
75941;SDS011;64622;46.220;19.878;2023-05-13T09:38:17;12.80;;;6.57;;
75941;SDS011;64622;46.220;19.878;2023-05-13T09:40:48;13.43;;;6.53;;
75941;SDS011;64622;46.220;19.878;2023-05-13T09:43:19;13.82;;;5.55;;
75941;SDS011;64622;46.220;19.878;2023-05-13T09:45:50;12.15;;;6.90;;
75941;SDS011;64622;46.220;19.878;2023-05-13T09:48:20;11.60;;;6.90;;
75941;SDS011;64622;46.220;19.878;2023-05-13T09:50:50;9.32;;;3.75;;
75941;SDS011;64622;46.220;19.878;2023-05-13T09:53:18;10.73;;;5.32;;
75941;SDS011;64622;46.220;19.878;2023-05-13T09:55:47;10.90;;;5.95;;
75941;SDS011;64622;46.220;19.878;2023-05-13T09:58:15;11.50;;;5.57;;
75941;SDS011;64622;46.220;19.878;2023-05-13T10:00:42;10.03;;;5.77;;
75941;SDS011;64622;46.220;19.878;2023-05-13T10:03:09;10.48;;;5.62;;
75941;SDS011;64622;46.220;19.878;2023-05-13T10:05:37;12.27;;;5.78;;
75941;SDS011;64622;46.220;19.878;2023-05-13T10:08:04;11.18;;;5.50;;
75941;SDS011;64622;46.220;19.878;2023-05-13T10:10:34;8.68;;;4.72;;
75941;SDS011;64622;46.220;19.878;2023-05-13T10:13:04;9.90;;;5.80;;
75941;SDS011;64622;46.220;19.878;2023-05-13T10:15:42;13.23;;;6.22;;
75941;SDS011;64622;46.220;19.878;2023-05-13T10:18:19;12.32;;;6.20;;
75941;SDS011;64622;46.220;19.878;2023-05-13T10:20:47;10.05;;;5.53;;
75941;SDS011;64622;46.220;19.878;2023-05-13T10:23:18;12.05;;;5.37;;
75941;SDS011;64622;46.220;19.878;2023-05-13T10:25:46;8.97;;;5.00;;
75941;SDS011;64622;46.220;19.878;2023-05-13T10:28:13;10.55;;;4.60;;
75941;SDS011;64622;46.220;19.878;2023-05-13T10:30:41;12.43;;;6.25;;
75941;SDS011;64622;46.220;19.878;2023-05-13T10:33:09;9.52;;;5.50;;
75941;SDS011;64622;46.220;19.878;2023-05-13T10:35:37;10.73;;;6.10;;
75941;SDS011;64622;46.220;19.878;2023-05-13T10:43:22;10.43;;;6.18;;
75941;SDS011;64622;46.220;19.878;2023-05-13T10:45:56;9.45;;;5.90;;
75941;SDS011;64622;46.220;19.878;2023-05-13T10:48:40;9.32;;;4.78;;
75941;SDS011;64622;46.220;19.878;2023-05-13T10:51:13;12.97;;;6.30;;
75941;SDS011;64622;46.220;19.878;2023-05-13T10:53:48;10.52;;;5.78;;
75941;SDS011;64622;46.220;19.878;2023-05-13T10:56:19;13.25;;;6.65;;
75941;SDS011;64622;46.220;19.878;2023-05-13T10:59:01;10.20;;;6.43;;
75941;SDS011;64622;46.220;19.878;2023-05-13T11:01:31;10.13;;;4.75;;
75941;SDS011;64622;46.220;19.878;2023-05-13T11:04:00;9.03;;;4.60;;
75941;SDS011;64622;46.220;19.878;2023-05-13T11:08:59;14.57;;;6.60;;
75941;SDS011;64622;46.220;19.878;2023-05-13T11:11:28;10.10;;;5.25;;
75941;SDS011;64622;46.220;19.878;2023-05-13T11:16:32;10.90;;;6.53;;
75941;SDS011;64622;46.220;19.878;2023-05-13T11:19:00;11.30;;;5.80;;
75941;SDS011;64622;46.220;19.878;2023-05-13T11:21:32;10.55;;;5.60;;
75941;SDS011;64622;46.220;19.878;2023-05-13T11:24:02;14.38;;;6.30;;
75941;SDS011;64622;46.220;19.878;2023-05-13T11:26:47;10.98;;;6.35;;
75941;SDS011;64622;46.220;19.878;2023-05-13T11:29:14;9.40;;;4.23;;
75941;SDS011;64622;46.220;19.878;2023-05-13T11:31:51;10.05;;;6.05;;
75941;SDS011;64622;46.220;19.878;2023-05-13T11:34:18;11.57;;;6.25;;
75941;SDS011;64622;46.220;19.878;2023-05-13T11:36:47;10.57;;;5.97;;
75941;SDS011;64622;46.220;19.878;2023-05-13T11:41:44;14.07;;;7.00;;
75941;SDS011;64622;46.220;19.878;2023-05-13T11:44:14;13.55;;;6.75;;
75941;SDS011;64622;46.220;19.878;2023-05-13T11:46:59;12.15;;;6.10;;
75941;SDS011;64622;46.220;19.878;2023-05-13T11:49:33;15.73;;;6.25;;
75941;SDS011;64622;46.220;19.878;2023-05-13T11:57:21;14.82;;;6.95;;
75941;SDS011;64622;46.220;19.878;2023-05-13T11:59:58;11.35;;;6.50;;
75941;SDS011;64622;46.220;19.878;2023-05-13T12:02:28;12.35;;;6.30;;
75941;SDS011;64622;46.220;19.878;2023-05-13T12:05:04;10.05;;;6.03;;
75941;SDS011;64622;46.220;19.878;2023-05-13T12:07:35;11.27;;;6.40;;
75941;SDS011;64622;46.220;19.878;2023-05-13T12:10:03;12.60;;;6.43;;
75941;SDS011;64622;46.220;19.878;2023-05-13T12:12:36;14.50;;;6.93;;
75941;SDS011;64622;46.220;19.878;2023-05-13T12:15:05;12.68;;;6.22;;
75941;SDS011;64622;46.220;19.878;2023-05-13T12:17:33;13.48;;;6.25;;
75941;SDS011;64622;46.220;19.878;2023-05-13T12:20:10;11.97;;;6.30;;
75941;SDS011;64622;46.220;19.878;2023-05-13T12:28:24;11.50;;;6.57;;
75941;SDS011;64622;46.220;19.878;2023-05-13T12:33:24;11.97;;;6.17;;
75941;SDS011;64622;46.220;19.878;2023-05-13T12:38:54;11.77;;;6.43;;
75941;SDS011;64622;46.220;19.878;2023-05-13T12:41:23;9.75;;;6.32;;
75941;SDS011;64622;46.220;19.878;2023-05-13T12:44:02;12.68;;;6.55;;
75941;SDS011;64622;46.220;19.878;2023-05-13T12:46:32;12.33;;;7.20;;
75941;SDS011;64622;46.220;19.878;2023-05-13T12:49:01;11.80;;;5.87;;
75941;SDS011;64622;46.220;19.878;2023-05-13T12:51:29;11.32;;;6.65;;
75941;SDS011;64622;46.220;19.878;2023-05-13T12:53:56;11.23;;;6.18;;
75941;SDS011;64622;46.220;19.878;2023-05-13T12:56:23;10.70;;;6.30;;
75941;SDS011;64622;46.220;19.878;2023-05-13T12:58:51;11.63;;;5.20;;
75941;SDS011;64622;46.220;19.878;2023-05-13T13:01:19;12.07;;;6.70;;
75941;SDS011;64622;46.220;19.878;2023-05-13T13:03:46;11.23;;;6.25;;
75941;SDS011;64622;46.220;19.878;2023-05-13T13:06:13;12.02;;;6.05;;
75941;SDS011;64622;46.220;19.878;2023-05-13T13:08:40;11.45;;;5.93;;
75941;SDS011;64622;46.220;19.878;2023-05-13T13:11:07;12.70;;;5.87;;
75941;SDS011;64622;46.220;19.878;2023-05-13T13:13:34;13.43;;;6.25;;
75941;SDS011;64622;46.220;19.878;2023-05-13T13:16:01;9.93;;;6.57;;
75941;SDS011;64622;46.220;19.878;2023-05-13T13:18:28;11.77;;;5.93;;
75941;SDS011;64622;46.220;19.878;2023-05-13T13:20:55;10.77;;;6.22;;
75941;SDS011;64622;46.220;19.878;2023-05-13T13:23:21;13.80;;;5.70;;
75941;SDS011;64622;46.220;19.878;2023-05-13T13:25:48;10.43;;;5.22;;
75941;SDS011;64622;46.220;19.878;2023-05-13T13:28:15;9.93;;;5.72;;
75941;SDS011;64622;46.220;19.878;2023-05-13T13:30:41;12.63;;;5.97;;
75941;SDS011;64622;46.220;19.878;2023-05-13T13:33:12;9.90;;;5.90;;
75941;SDS011;64622;46.220;19.878;2023-05-13T13:35:41;10.37;;;5.70;;
75941;SDS011;64622;46.220;19.878;2023-05-13T13:38:12;13.60;;;4.93;;
75941;SDS011;64622;46.220;19.878;2023-05-13T13:40:39;10.88;;;5.30;;
75941;SDS011;64622;46.220;19.878;2023-05-13T13:43:06;11.05;;;5.57;;
75941;SDS011;64622;46.220;19.878;2023-05-13T13:45:34;10.88;;;5.50;;
75941;SDS011;64622;46.220;19.878;2023-05-13T13:48:01;10.33;;;5.57;;
75941;SDS011;64622;46.220;19.878;2023-05-13T13:50:28;10.32;;;5.70;;
75941;SDS011;64622;46.220;19.878;2023-05-13T13:52:55;10.15;;;5.37;;
75941;SDS011;64622;46.220;19.878;2023-05-13T13:55:22;10.73;;;5.30;;
75941;SDS011;64622;46.220;19.878;2023-05-13T13:57:49;9.65;;;5.07;;
75941;SDS011;64622;46.220;19.878;2023-05-13T14:00:16;9.67;;;4.77;;
75941;SDS011;64622;46.220;19.878;2023-05-13T14:02:43;10.35;;;5.10;;
75941;SDS011;64622;46.220;19.878;2023-05-13T14:05:10;9.52;;;5.50;;
75941;SDS011;64622;46.220;19.878;2023-05-13T14:07:38;10.25;;;5.45;;
75941;SDS011;64622;46.220;19.878;2023-05-13T14:10:05;12.43;;;5.57;;
75941;SDS011;64622;46.220;19.878;2023-05-13T14:12:33;10.30;;;5.13;;
75941;SDS011;64622;46.220;19.878;2023-05-13T14:15:01;10.38;;;5.18;;
75941;SDS011;64622;46.220;19.878;2023-05-13T14:17:28;9.02;;;5.05;;
75941;SDS011;64622;46.220;19.878;2023-05-13T14:19:54;13.18;;;5.22;;
75941;SDS011;64622;46.220;19.878;2023-05-13T14:22:21;9.70;;;5.47;;
75941;SDS011;64622;46.220;19.878;2023-05-13T14:24:49;10.73;;;5.40;;
75941;SDS011;64622;46.220;19.878;2023-05-13T14:27:17;11.30;;;5.32;;
75941;SDS011;64622;46.220;19.878;2023-05-13T14:29:47;10.55;;;5.72;;
75941;SDS011;64622;46.220;19.878;2023-05-13T14:32:14;11.63;;;5.10;;
75941;SDS011;64622;46.220;19.878;2023-05-13T14:34:41;11.65;;;5.05;;
75941;SDS011;64622;46.220;19.878;2023-05-13T14:37:07;9.13;;;5.17;;
75941;SDS011;64622;46.220;19.878;2023-05-13T14:39:35;8.75;;;4.82;;
75941;SDS011;64622;46.220;19.878;2023-05-13T14:42:01;11.30;;;5.35;;
75941;SDS011;64622;46.220;19.878;2023-05-13T14:44:29;10.45;;;4.90;;
75941;SDS011;64622;46.220;19.878;2023-05-13T14:46:55;12.55;;;6.47;;
75941;SDS011;64622;46.220;19.878;2023-05-13T14:49:22;8.70;;;4.83;;
75941;SDS011;64622;46.220;19.878;2023-05-13T14:51:48;10.00;;;4.60;;
75941;SDS011;64622;46.220;19.878;2023-05-13T14:54:15;9.93;;;4.78;;
75941;SDS011;64622;46.220;19.878;2023-05-13T14:56:42;10.77;;;4.80;;
75941;SDS011;64622;46.220;19.878;2023-05-13T14:59:09;8.68;;;4.60;;
75941;SDS011;64622;46.220;19.878;2023-05-13T15:01:36;10.37;;;4.60;;
75941;SDS011;64622;46.220;19.878;2023-05-13T15:04:02;10.80;;;4.95;;
75941;SDS011;64622;46.220;19.878;2023-05-13T15:06:29;11.27;;;5.03;;